sensor_id;sensor_type;location;lat;lon;timestamp;P1;durP1;ratioP1;P2;durP2;ratioP2
45686;SDS011;31399;51.176;7.776;2023-09-18T00:00:45;8.25;;;3.42;;
45686;SDS011;31399;51.176;7.776;2023-09-18T00:03:12;6.05;;;3.38;;
45686;SDS011;31399;51.176;7.776;2023-09-18T00:05:39;6.00;;;3.15;;
45686;SDS011;31399;51.176;7.776;2023-09-18T00:08:05;5.30;;;3.10;;
45686;SDS011;31399;51.176;7.776;2023-09-18T00:10:33;6.78;;;4.07;;
45686;SDS011;31399;51.176;7.776;2023-09-18T00:13:00;6.13;;;3.20;;
45686;SDS011;31399;51.176;7.776;2023-09-18T00:15:27;7.38;;;3.92;;
45686;SDS011;31399;51.176;7.776;2023-09-18T00:17:54;10.05;;;4.13;;
45686;SDS011;31399;51.176;7.776;2023-09-18T00:20:20;10.77;;;4.28;;
45686;SDS011;31399;51.176;7.776;2023-09-18T00:22:56;7.78;;;4.10;;
45686;SDS011;31399;51.176;7.776;2023-09-18T00:25:22;10.93;;;4.25;;
45686;SDS011;31399;51.176;7.776;2023-09-18T00:27:49;8.18;;;4.25;;
45686;SDS011;31399;51.176;7.776;2023-09-18T00:30:18;8.52;;;4.15;;
45686;SDS011;31399;51.176;7.776;2023-09-18T00:32:44;6.90;;;4.25;;
45686;SDS011;31399;51.176;7.776;2023-09-18T00:35:13;6.07;;;4.35;;
45686;SDS011;31399;51.176;7.776;2023-09-18T00:37:40;9.95;;;3.78;;
45686;SDS011;31399;51.176;7.776;2023-09-18T00:40:07;8.70;;;3.85;;
45686;SDS011;31399;51.176;7.776;2023-09-18T00:42:33;6.05;;;4.03;;
45686;SDS011;31399;51.176;7.776;2023-09-18T00:45:00;12.13;;;4.25;;
45686;SDS011;31399;51.176;7.776;2023-09-18T00:47:27;5.95;;;3.70;;
45686;SDS011;31399;51.176;7.776;2023-09-18T00:49:54;9.07;;;4.35;;
45686;SDS011;31399;51.176;7.776;2023-09-18T00:52:21;9.32;;;4.43;;
45686;SDS011;31399;51.176;7.776;2023-09-18T00:54:49;10.75;;;3.88;;
45686;SDS011;31399;51.176;7.776;2023-09-18T00:57:16;9.55;;;4.07;;
45686;SDS011;31399;51.176;7.776;2023-09-18T00:59:43;6.10;;;3.60;;
45686;SDS011;31399;51.176;7.776;2023-09-18T01:02:09;7.57;;;4.13;;
45686;SDS011;31399;51.176;7.776;2023-09-18T01:04:36;9.23;;;4.45;;
45686;SDS011;31399;51.176;7.776;2023-09-18T01:07:03;7.28;;;3.63;;
45686;SDS011;31399;51.176;7.776;2023-09-18T01:09:30;10.10;;;3.30;;
45686;SDS011;31399;51.176;7.776;2023-09-18T01:17:04;5.97;;;3.40;;
45686;SDS011;31399;51.176;7.776;2023-09-18T01:19:46;7.13;;;3.75;;
45686;SDS011;31399;51.176;7.776;2023-09-18T01:22:14;7.68;;;3.72;;
45686;SDS011;31399;51.176;7.776;2023-09-18T01:24:45;6.47;;;3.65;;
45686;SDS011;31399;51.176;7.776;2023-09-18T01:27:16;13.70;;;3.33;;
45686;SDS011;31399;51.176;7.776;2023-09-18T01:29:44;7.10;;;3.97;;
45686;SDS011;31399;51.176;7.776;2023-09-18T01:32:12;6.75;;;3.38;;
45686;SDS011;31399;51.176;7.776;2023-09-18T01:34:40;9.43;;;3.30;;
45686;SDS011;31399;51.176;7.776;2023-09-18T01:37:09;6.30;;;3.15;;
45686;SDS011;31399;51.176;7.776;2023-09-18T01:39:36;10.68;;;2.92;;
45686;SDS011;31399;51.176;7.776;2023-09-18T01:42:06;4.68;;;2.47;;
45686;SDS011;31399;51.176;7.776;2023-09-18T01:44:33;6.80;;;2.63;;
45686;SDS011;31399;51.176;7.776;2023-09-18T01:47:01;3.58;;;2.45;;
45686;SDS011;31399;51.176;7.776;2023-09-18T01:49:29;7.68;;;2.70;;
45686;SDS011;31399;51.176;7.776;2023-09-18T01:51:57;11.48;;;2.90;;
45686;SDS011;31399;51.176;7.776;2023-09-18T01:54:24;5.82;;;3.42;;
45686;SDS011;31399;51.176;7.776;2023-09-18T01:56:54;5.47;;;2.72;;
45686;SDS011;31399;51.176;7.776;2023-09-18T01:59:21;5.75;;;3.53;;
45686;SDS011;31399;51.176;7.776;2023-09-18T02:01:50;3.55;;;3.10;;
45686;SDS011;31399;51.176;7.776;2023-09-18T02:04:18;5.70;;;3.00;;
45686;SDS011;31399;51.176;7.776;2023-09-18T02:07:05;7.68;;;2.72;;
45686;SDS011;31399;51.176;7.776;2023-09-18T02:09:32;7.78;;;2.97;;
45686;SDS011;31399;51.176;7.776;2023-09-18T02:11:59;7.97;;;3.25;;
45686;SDS011;31399;51.176;7.776;2023-09-18T02:14:25;5.93;;;3.30;;
45686;SDS011;31399;51.176;7.776;2023-09-18T02:16:52;5.22;;;3.17;;
45686;SDS011;31399;51.176;7.776;2023-09-18T02:19:20;7.45;;;2.75;;
45686;SDS011;31399;51.176;7.776;2023-09-18T02:21:46;4.90;;;2.50;;
45686;SDS011;31399;51.176;7.776;2023-09-18T02:24:13;5.32;;;2.65;;
45686;SDS011;31399;51.176;7.776;2023-09-18T02:26:40;5.43;;;3.28;;
45686;SDS011;31399;51.176;7.776;2023-09-18T02:29:07;5.63;;;3.03;;
45686;SDS011;31399;51.176;7.776;2023-09-18T02:31:40;3.92;;;2.60;;
45686;SDS011;31399;51.176;7.776;2023-09-18T02:34:07;8.95;;;2.70;;
45686;SDS011;31399;51.176;7.776;2023-09-18T02:36:35;4.95;;;2.60;;
45686;SDS011;31399;51.176;7.776;2023-09-18T02:39:02;6.28;;;2.95;;
45686;SDS011;31399;51.176;7.776;2023-09-18T02:41:29;4.20;;;2.80;;
45686;SDS011;31399;51.176;7.776;2023-09-18T02:43:56;5.63;;;3.15;;
45686;SDS011;31399;51.176;7.776;2023-09-18T02:46:22;5.25;;;3.05;;
45686;SDS011;31399;51.176;7.776;2023-09-18T02:48:49;6.47;;;2.75;;
45686;SDS011;31399;51.176;7.776;2023-09-18T02:51:16;3.88;;;3.00;;
45686;SDS011;31399;51.176;7.776;2023-09-18T02:53:43;7.22;;;2.28;;
45686;SDS011;31399;51.176;7.776;2023-09-18T02:56:09;3.70;;;2.22;;
45686;SDS011;31399;51.176;7.776;2023-09-18T02:58:36;3.83;;;2.50;;
45686;SDS011;31399;51.176;7.776;2023-09-18T03:01:03;8.68;;;2.60;;
45686;SDS011;31399;51.176;7.776;2023-09-18T03:03:31;6.40;;;2.90;;
45686;SDS011;31399;51.176;7.776;2023-09-18T03:06:02;7.25;;;2.55;;
45686;SDS011;31399;51.176;7.776;2023-09-18T03:08:29;3.97;;;2.40;;
45686;SDS011;31399;51.176;7.776;2023-09-18T03:10:56;6.00;;;2.45;;
45686;SDS011;31399;51.176;7.776;2023-09-18T03:13:23;6.75;;;2.60;;
45686;SDS011;31399;51.176;7.776;2023-09-18T03:15:49;9.15;;;2.22;;
45686;SDS011;31399;51.176;7.776;2023-09-18T03:18:16;4.22;;;1.80;;
45686;SDS011;31399;51.176;7.776;2023-09-18T03:20:43;5.38;;;2.17;;
45686;SDS011;31399;51.176;7.776;2023-09-18T03:23:09;6.40;;;2.22;;
45686;SDS011;31399;51.176;7.776;2023-09-18T03:25:36;7.45;;;2.53;;
45686;SDS011;31399;51.176;7.776;2023-09-18T03:28:17;8.10;;;2.25;;
45686;SDS011;31399;51.176;7.776;2023-09-18T03:30:44;8.50;;;2.55;;
45686;SDS011;31399;51.176;7.776;2023-09-18T03:33:10;13.02;;;2.40;;
45686;SDS011;31399;51.176;7.776;2023-09-18T03:35:47;8.18;;;2.47;;
45686;SDS011;31399;51.176;7.776;2023-09-18T03:38:15;9.98;;;2.53;;
45686;SDS011;31399;51.176;7.776;2023-09-18T03:40:42;8.00;;;2.17;;
45686;SDS011;31399;51.176;7.776;2023-09-18T03:43:10;12.85;;;2.70;;
45686;SDS011;31399;51.176;7.776;2023-09-18T03:45:39;11.98;;;2.70;;
45686;SDS011;31399;51.176;7.776;2023-09-18T03:48:09;14.03;;;2.80;;
45686;SDS011;31399;51.176;7.776;2023-09-18T03:50:37;13.10;;;2.60;;
45686;SDS011;31399;51.176;7.776;2023-09-18T03:53:05;12.18;;;3.05;;
45686;SDS011;31399;51.176;7.776;2023-09-18T03:55:32;8.82;;;2.92;;
45686;SDS011;31399;51.176;7.776;2023-09-18T03:57:59;7.45;;;2.65;;
45686;SDS011;31399;51.176;7.776;2023-09-18T04:00:26;5.57;;;2.15;;
45686;SDS011;31399;51.176;7.776;2023-09-18T04:02:53;10.93;;;2.80;;
45686;SDS011;31399;51.176;7.776;2023-09-18T04:05:20;8.52;;;2.17;;
45686;SDS011;31399;51.176;7.776;2023-09-18T04:07:46;11.00;;;2.10;;
45686;SDS011;31399;51.176;7.776;2023-09-18T04:10:14;8.05;;;2.00;;
45686;SDS011;31399;51.176;7.776;2023-09-18T04:12:50;5.13;;;2.10;;
45686;SDS011;31399;51.176;7.776;2023-09-18T04:15:17;7.85;;;2.38;;
45686;SDS011;31399;51.176;7.776;2023-09-18T04:17:45;9.68;;;1.90;;
45686;SDS011;31399;51.176;7.776;2023-09-18T04:20:12;9.63;;;2.10;;
45686;SDS011;31399;51.176;7.776;2023-09-18T04:22:46;4.32;;;1.55;;
45686;SDS011;31399;51.176;7.776;2023-09-18T04:25:17;9.52;;;2.33;;
45686;SDS011;31399;51.176;7.776;2023-09-18T04:27:46;5.88;;;2.08;;
45686;SDS011;31399;51.176;7.776;2023-09-18T04:30:13;9.43;;;2.17;;
45686;SDS011;31399;51.176;7.776;2023-09-18T04:32:40;5.47;;;2.08;;
45686;SDS011;31399;51.176;7.776;2023-09-18T04:35:07;8.45;;;2.33;;
45686;SDS011;31399;51.176;7.776;2023-09-18T04:37:36;7.28;;;2.28;;
45686;SDS011;31399;51.176;7.776;2023-09-18T04:40:07;14.00;;;2.58;;
45686;SDS011;31399;51.176;7.776;2023-09-18T04:42:37;9.90;;;2.50;;
45686;SDS011;31399;51.176;7.776;2023-09-18T04:45:04;12.02;;;2.40;;
45686;SDS011;31399;51.176;7.776;2023-09-18T04:47:32;11.25;;;2.45;;
45686;SDS011;31399;51.176;7.776;2023-09-18T04:49:58;5.28;;;2.38;;
45686;SDS011;31399;51.176;7.776;2023-09-18T04:52:25;11.07;;;2.38;;
45686;SDS011;31399;51.176;7.776;2023-09-18T04:54:52;6.80;;;3.03;;
45686;SDS011;31399;51.176;7.776;2023-09-18T04:57:20;7.40;;;2.58;;
45686;SDS011;31399;51.176;7.776;2023-09-18T04:59:48;9.68;;;2.65;;
45686;SDS011;31399;51.176;7.776;2023-09-18T05:02:30;8.27;;;2.22;;
45686;SDS011;31399;51.176;7.776;2023-09-18T05:04:57;9.98;;;2.92;;
45686;SDS011;31399;51.176;7.776;2023-09-18T05:07:24;8.00;;;2.50;;
45686;SDS011;31399;51.176;7.776;2023-09-18T05:09:51;6.18;;;2.40;;
45686;SDS011;31399;51.176;7.776;2023-09-18T05:12:18;11.63;;;3.05;;
45686;SDS011;31399;51.176;7.776;2023-09-18T05:14:45;5.00;;;1.98;;
45686;SDS011;31399;51.176;7.776;2023-09-18T05:17:14;8.18;;;2.22;;
45686;SDS011;31399;51.176;7.776;2023-09-18T05:19:42;10.45;;;2.35;;
45686;SDS011;31399;51.176;7.776;2023-09-18T05:22:09;6.60;;;1.92;;
45686;SDS011;31399;51.176;7.776;2023-09-18T05:24:39;5.85;;;1.98;;
45686;SDS011;31399;51.176;7.776;2023-09-18T05:27:06;9.13;;;1.98;;
45686;SDS011;31399;51.176;7.776;2023-09-18T05:29:34;5.32;;;2.00;;
45686;SDS011;31399;51.176;7.776;2023-09-18T05:32:02;11.13;;;2.10;;
45686;SDS011;31399;51.176;7.776;2023-09-18T05:34:30;12.68;;;2.03;;
45686;SDS011;31399;51.176;7.776;2023-09-18T05:36:58;9.20;;;1.90;;
45686;SDS011;31399;51.176;7.776;2023-09-18T05:39:24;8.18;;;1.85;;
45686;SDS011;31399;51.176;7.776;2023-09-18T05:41:51;4.68;;;1.60;;
45686;SDS011;31399;51.176;7.776;2023-09-18T05:44:18;8.27;;;1.60;;
45686;SDS011;31399;51.176;7.776;2023-09-18T05:46:44;8.02;;;1.80;;
45686;SDS011;31399;51.176;7.776;2023-09-18T05:49:11;5.45;;;1.67;;
45686;SDS011;31399;51.176;7.776;2023-09-18T05:51:38;5.20;;;2.08;;
45686;SDS011;31399;51.176;7.776;2023-09-18T05:54:05;7.00;;;1.65;;
45686;SDS011;31399;51.176;7.776;2023-09-18T05:56:32;4.85;;;1.70;;
45686;SDS011;31399;51.176;7.776;2023-09-18T05:59:00;7.10;;;2.03;;
45686;SDS011;31399;51.176;7.776;2023-09-18T06:01:26;6.70;;;1.60;;
45686;SDS011;31399;51.176;7.776;2023-09-18T06:03:54;8.52;;;2.13;;
45686;SDS011;31399;51.176;7.776;2023-09-18T06:06:20;4.82;;;1.48;;
45686;SDS011;31399;51.176;7.776;2023-09-18T06:08:47;6.50;;;1.70;;
45686;SDS011;31399;51.176;7.776;2023-09-18T06:11:14;10.13;;;2.00;;
45686;SDS011;31399;51.176;7.776;2023-09-18T06:13:40;7.75;;;1.50;;
45686;SDS011;31399;51.176;7.776;2023-09-18T06:16:07;9.90;;;1.50;;
45686;SDS011;31399;51.176;7.776;2023-09-18T06:18:34;6.25;;;1.83;;
45686;SDS011;31399;51.176;7.776;2023-09-18T06:21:04;6.28;;;2.17;;
45686;SDS011;31399;51.176;7.776;2023-09-18T06:23:31;5.05;;;1.92;;
45686;SDS011;31399;51.176;7.776;2023-09-18T06:25:58;10.35;;;1.70;;
45686;SDS011;31399;51.176;7.776;2023-09-18T06:28:25;7.20;;;1.70;;
45686;SDS011;31399;51.176;7.776;2023-09-18T06:30:52;3.47;;;1.20;;
45686;SDS011;31399;51.176;7.776;2023-09-18T06:33:20;10.60;;;2.03;;
45686;SDS011;31399;51.176;7.776;2023-09-18T06:35:47;8.65;;;1.70;;
45686;SDS011;31399;51.176;7.776;2023-09-18T06:38:15;6.25;;;1.60;;
45686;SDS011;31399;51.176;7.776;2023-09-18T06:40:41;7.38;;;1.63;;
45686;SDS011;31399;51.176;7.776;2023-09-18T06:43:08;9.95;;;2.40;;
45686;SDS011;31399;51.176;7.776;2023-09-18T06:45:35;6.20;;;1.23;;
45686;SDS011;31399;51.176;7.776;2023-09-18T06:48:04;6.30;;;2.20;;
45686;SDS011;31399;51.176;7.776;2023-09-18T06:50:31;6.82;;;1.75;;
45686;SDS011;31399;51.176;7.776;2023-09-18T06:52:58;9.13;;;2.53;;
45686;SDS011;31399;51.176;7.776;2023-09-18T06:55:25;7.85;;;1.38;;
45686;SDS011;31399;51.176;7.776;2023-09-18T06:57:51;9.43;;;2.53;;
45686;SDS011;31399;51.176;7.776;2023-09-18T07:00:18;6.68;;;1.98;;
45686;SDS011;31399;51.176;7.776;2023-09-18T07:02:47;7.32;;;2.05;;
45686;SDS011;31399;51.176;7.776;2023-09-18T07:05:16;4.90;;;1.65;;
45686;SDS011;31399;51.176;7.776;2023-09-18T07:07:43;3.55;;;1.60;;
45686;SDS011;31399;51.176;7.776;2023-09-18T07:10:10;11.13;;;2.03;;
45686;SDS011;31399;51.176;7.776;2023-09-18T07:12:36;5.90;;;1.58;;
45686;SDS011;31399;51.176;7.776;2023-09-18T07:15:03;2.85;;;1.50;;
45686;SDS011;31399;51.176;7.776;2023-09-18T07:17:31;9.15;;;1.65;;
45686;SDS011;31399;51.176;7.776;2023-09-18T07:19:59;3.17;;;1.48;;
45686;SDS011;31399;51.176;7.776;2023-09-18T07:22:26;7.78;;;1.80;;
45686;SDS011;31399;51.176;7.776;2023-09-18T07:24:56;5.40;;;1.52;;
45686;SDS011;31399;51.176;7.776;2023-09-18T07:27:23;6.18;;;1.70;;
45686;SDS011;31399;51.176;7.776;2023-09-18T07:29:49;7.32;;;1.70;;
45686;SDS011;31399;51.176;7.776;2023-09-18T07:32:16;7.70;;;2.00;;
45686;SDS011;31399;51.176;7.776;2023-09-18T07:35:01;6.07;;;1.10;;
45686;SDS011;31399;51.176;7.776;2023-09-18T07:37:31;2.38;;;1.40;;
45686;SDS011;31399;51.176;7.776;2023-09-18T07:39:57;7.53;;;1.58;;
45686;SDS011;31399;51.176;7.776;2023-09-18T07:42:27;5.53;;;1.23;;
45686;SDS011;31399;51.176;7.776;2023-09-18T07:44:53;8.85;;;1.50;;
45686;SDS011;31399;51.176;7.776;2023-09-18T07:47:24;6.00;;;1.13;;
45686;SDS011;31399;51.176;7.776;2023-09-18T07:49:51;6.03;;;1.23;;
45686;SDS011;31399;51.176;7.776;2023-09-18T07:52:17;5.28;;;1.45;;
45686;SDS011;31399;51.176;7.776;2023-09-18T07:54:44;3.15;;;1.20;;
45686;SDS011;31399;51.176;7.776;2023-09-18T07:57:10;5.25;;;1.27;;
45686;SDS011;31399;51.176;7.776;2023-09-18T07:59:37;3.30;;;1.20;;
45686;SDS011;31399;51.176;7.776;2023-09-18T08:02:08;4.80;;;1.15;;
45686;SDS011;31399;51.176;7.776;2023-09-18T08:04:38;4.68;;;1.27;;
45686;SDS011;31399;51.176;7.776;2023-09-18T08:07:05;5.03;;;1.10;;
45686;SDS011;31399;51.176;7.776;2023-09-18T08:09:33;4.15;;;1.23;;
45686;SDS011;31399;51.176;7.776;2023-09-18T08:12:02;7.00;;;1.33;;
45686;SDS011;31399;51.176;7.776;2023-09-18T08:14:29;4.45;;;0.93;;
45686;SDS011;31399;51.176;7.776;2023-09-18T08:17:00;5.30;;;1.45;;
45686;SDS011;31399;51.176;7.776;2023-09-18T08:19:27;2.28;;;0.82;;
45686;SDS011;31399;51.176;7.776;2023-09-18T08:21:54;2.40;;;1.20;;
45686;SDS011;31399;51.176;7.776;2023-09-18T08:24:22;2.80;;;0.90;;
45686;SDS011;31399;51.176;7.776;2023-09-18T08:26:49;3.67;;;0.95;;
45686;SDS011;31399;51.176;7.776;2023-09-18T08:29:16;8.48;;;1.08;;
45686;SDS011;31399;51.176;7.776;2023-09-18T08:31:42;8.05;;;1.20;;
45686;SDS011;31399;51.176;7.776;2023-09-18T08:34:09;4.03;;;1.00;;
45686;SDS011;31399;51.176;7.776;2023-09-18T08:36:36;5.72;;;1.30;;
45686;SDS011;31399;51.176;7.776;2023-09-18T08:39:02;2.97;;;0.68;;
45686;SDS011;31399;51.176;7.776;2023-09-18T08:41:32;3.45;;;0.90;;
45686;SDS011;31399;51.176;7.776;2023-09-18T08:44:00;3.55;;;0.80;;
45686;SDS011;31399;51.176;7.776;2023-09-18T08:46:30;6.32;;;0.85;;
45686;SDS011;31399;51.176;7.776;2023-09-18T08:48:59;1.60;;;0.70;;
45686;SDS011;31399;51.176;7.776;2023-09-18T08:51:27;4.28;;;1.00;;
45686;SDS011;31399;51.176;7.776;2023-09-18T08:53:54;2.83;;;0.50;;
45686;SDS011;31399;51.176;7.776;2023-09-18T08:56:22;1.27;;;0.73;;
45686;SDS011;31399;51.176;7.776;2023-09-18T08:58:49;2.30;;;0.82;;
45686;SDS011;31399;51.176;7.776;2023-09-18T09:01:16;5.00;;;0.90;;
45686;SDS011;31399;51.176;7.776;2023-09-18T09:03:43;3.28;;;0.70;;
45686;SDS011;31399;51.176;7.776;2023-09-18T09:06:12;4.53;;;0.93;;
45686;SDS011;31399;51.176;7.776;2023-09-18T09:08:39;3.80;;;1.08;;
45686;SDS011;31399;51.176;7.776;2023-09-18T09:11:05;3.92;;;0.80;;
45686;SDS011;31399;51.176;7.776;2023-09-18T09:13:32;2.60;;;0.90;;
45686;SDS011;31399;51.176;7.776;2023-09-18T09:16:11;4.05;;;0.73;;
45686;SDS011;31399;51.176;7.776;2023-09-18T09:18:49;1.80;;;0.60;;
45686;SDS011;31399;51.176;7.776;2023-09-18T09:21:17;5.65;;;0.77;;
45686;SDS011;31399;51.176;7.776;2023-09-18T09:23:51;1.70;;;0.60;;
45686;SDS011;31399;51.176;7.776;2023-09-18T09:26:20;2.72;;;0.85;;
45686;SDS011;31399;51.176;7.776;2023-09-18T09:28:48;3.38;;;1.10;;
45686;SDS011;31399;51.176;7.776;2023-09-18T09:31:34;3.42;;;0.60;;
45686;SDS011;31399;51.176;7.776;2023-09-18T09:34:01;4.50;;;0.65;;
45686;SDS011;31399;51.176;7.776;2023-09-18T09:36:31;3.80;;;0.70;;
45686;SDS011;31399;51.176;7.776;2023-09-18T09:38:59;4.07;;;0.77;;
45686;SDS011;31399;51.176;7.776;2023-09-18T09:41:26;3.17;;;0.77;;
45686;SDS011;31399;51.176;7.776;2023-09-18T09:43:54;1.88;;;0.50;;
45686;SDS011;31399;51.176;7.776;2023-09-18T09:46:22;2.05;;;0.82;;
45686;SDS011;31399;51.176;7.776;2023-09-18T09:49:02;4.35;;;0.57;;
45686;SDS011;31399;51.176;7.776;2023-09-18T09:51:30;1.67;;;0.68;;
45686;SDS011;31399;51.176;7.776;2023-09-18T09:53:57;2.97;;;0.60;;
45686;SDS011;31399;51.176;7.776;2023-09-18T09:56:44;1.90;;;0.70;;
45686;SDS011;31399;51.176;7.776;2023-09-18T09:59:14;1.35;;;0.60;;
45686;SDS011;31399;51.176;7.776;2023-09-18T10:01:42;3.28;;;0.65;;
45686;SDS011;31399;51.176;7.776;2023-09-18T10:04:14;2.72;;;0.50;;
45686;SDS011;31399;51.176;7.776;2023-09-18T10:06:56;4.60;;;0.65;;
45686;SDS011;31399;51.176;7.776;2023-09-18T10:09:26;1.98;;;0.60;;
45686;SDS011;31399;51.176;7.776;2023-09-18T10:11:53;3.28;;;0.57;;
45686;SDS011;31399;51.176;7.776;2023-09-18T10:14:32;3.38;;;0.80;;
45686;SDS011;31399;51.176;7.776;2023-09-18T10:17:22;3.45;;;0.70;;
45686;SDS011;31399;51.176;7.776;2023-09-18T10:19:53;4.22;;;0.75;;
45686;SDS011;31399;51.176;7.776;2023-09-18T10:22:38;2.42;;;0.75;;
45686;SDS011;31399;51.176;7.776;2023-09-18T10:25:17;1.77;;;0.68;;
45686;SDS011;31399;51.176;7.776;2023-09-18T10:27:46;4.07;;;0.55;;
45686;SDS011;31399;51.176;7.776;2023-09-18T10:30:20;4.47;;;0.82;;
45686;SDS011;31399;51.176;7.776;2023-09-18T10:32:49;3.85;;;0.80;;
45686;SDS011;31399;51.176;7.776;2023-09-18T10:35:18;3.30;;;0.88;;
45686;SDS011;31399;51.176;7.776;2023-09-18T10:37:46;2.58;;;0.70;;
45686;SDS011;31399;51.176;7.776;2023-09-18T10:40:14;2.35;;;0.60;;
45686;SDS011;31399;51.176;7.776;2023-09-18T10:42:42;2.72;;;0.80;;
45686;SDS011;31399;51.176;7.776;2023-09-18T10:45:10;2.60;;;0.65;;
45686;SDS011;31399;51.176;7.776;2023-09-18T10:47:41;2.92;;;0.70;;
45686;SDS011;31399;51.176;7.776;2023-09-18T10:50:09;1.38;;;0.57;;
45686;SDS011;31399;51.176;7.776;2023-09-18T10:52:37;1.35;;;0.88;;
45686;SDS011;31399;51.176;7.776;2023-09-18T10:55:11;3.53;;;0.55;;
45686;SDS011;31399;51.176;7.776;2023-09-18T10:57:49;5.25;;;0.73;;
45686;SDS011;31399;51.176;7.776;2023-09-18T11:00:26;1.42;;;0.70;;
45686;SDS011;31399;51.176;7.776;2023-09-18T11:03:14;1.25;;;0.47;;
45686;SDS011;31399;51.176;7.776;2023-09-18T11:05:45;0.60;;;0.45;;
45686;SDS011;31399;51.176;7.776;2023-09-18T11:08:29;2.08;;;0.50;;
45686;SDS011;31399;51.176;7.776;2023-09-18T11:11:07;2.70;;;0.65;;
45686;SDS011;31399;51.176;7.776;2023-09-18T11:13:47;2.67;;;0.57;;
45686;SDS011;31399;51.176;7.776;2023-09-18T11:18:52;1.88;;;0.60;;
45686;SDS011;31399;51.176;7.776;2023-09-18T11:21:33;1.80;;;0.60;;
45686;SDS011;31399;51.176;7.776;2023-09-18T11:24:01;4.35;;;1.30;;
45686;SDS011;31399;51.176;7.776;2023-09-18T11:26:31;4.18;;;0.80;;
45686;SDS011;31399;51.176;7.776;2023-09-18T11:28:58;4.72;;;0.85;;
45686;SDS011;31399;51.176;7.776;2023-09-18T11:34:29;1.73;;;0.68;;
45686;SDS011;31399;51.176;7.776;2023-09-18T11:37:21;3.30;;;0.85;;
45686;SDS011;31399;51.176;7.776;2023-09-18T11:39:48;2.17;;;0.90;;
45686;SDS011;31399;51.176;7.776;2023-09-18T11:42:19;1.92;;;0.50;;
45686;SDS011;31399;51.176;7.776;2023-09-18T11:44:49;2.42;;;0.50;;
45686;SDS011;31399;51.176;7.776;2023-09-18T11:47:16;6.18;;;0.73;;
45686;SDS011;31399;51.176;7.776;2023-09-18T11:49:47;2.22;;;0.50;;
45686;SDS011;31399;51.176;7.776;2023-09-18T11:52:22;3.22;;;0.50;;
45686;SDS011;31399;51.176;7.776;2023-09-18T11:54:56;3.60;;;0.70;;
45686;SDS011;31399;51.176;7.776;2023-09-18T11:57:24;2.75;;;0.70;;
45686;SDS011;31399;51.176;7.776;2023-09-18T11:59:51;3.20;;;0.40;;
45686;SDS011;31399;51.176;7.776;2023-09-18T12:02:28;1.85;;;0.50;;
45686;SDS011;31399;51.176;7.776;2023-09-18T12:05:21;2.75;;;0.50;;
45686;SDS011;31399;51.176;7.776;2023-09-18T12:07:52;2.30;;;0.50;;
45686;SDS011;31399;51.176;7.776;2023-09-18T12:10:19;1.23;;;0.60;;
45686;SDS011;31399;51.176;7.776;2023-09-18T12:12:49;1.27;;;0.70;;
45686;SDS011;31399;51.176;7.776;2023-09-18T12:15:19;2.42;;;0.57;;
45686;SDS011;31399;51.176;7.776;2023-09-18T12:17:46;3.25;;;0.50;;
45686;SDS011;31399;51.176;7.776;2023-09-18T12:20:16;2.38;;;0.93;;
45686;SDS011;31399;51.176;7.776;2023-09-18T12:22:47;3.80;;;0.70;;
45686;SDS011;31399;51.176;7.776;2023-09-18T12:25:15;3.33;;;0.80;;
45686;SDS011;31399;51.176;7.776;2023-09-18T12:27:43;3.70;;;0.90;;
45686;SDS011;31399;51.176;7.776;2023-09-18T12:30:10;2.90;;;0.50;;
45686;SDS011;31399;51.176;7.776;2023-09-18T12:32:38;2.03;;;0.57;;
45686;SDS011;31399;51.176;7.776;2023-09-18T12:35:05;2.28;;;0.50;;
45686;SDS011;31399;51.176;7.776;2023-09-18T12:37:39;1.42;;;0.50;;
45686;SDS011;31399;51.176;7.776;2023-09-18T12:42:49;2.88;;;0.52;;
45686;SDS011;31399;51.176;7.776;2023-09-18T12:45:16;2.97;;;0.75;;
45686;SDS011;31399;51.176;7.776;2023-09-18T12:47:43;3.10;;;0.65;;
45686;SDS011;31399;51.176;7.776;2023-09-18T12:50:12;2.60;;;0.50;;
45686;SDS011;31399;51.176;7.776;2023-09-18T12:52:40;3.58;;;1.00;;
45686;SDS011;31399;51.176;7.776;2023-09-18T12:55:07;1.85;;;0.50;;
45686;SDS011;31399;51.176;7.776;2023-09-18T12:57:34;4.05;;;0.85;;
45686;SDS011;31399;51.176;7.776;2023-09-18T13:00:08;1.30;;;0.70;;
45686;SDS011;31399;51.176;7.776;2023-09-18T13:02:39;2.33;;;0.80;;
45686;SDS011;31399;51.176;7.776;2023-09-18T13:05:06;2.90;;;0.75;;
45686;SDS011;31399;51.176;7.776;2023-09-18T13:07:42;7.03;;;0.85;;
45686;SDS011;31399;51.176;7.776;2023-09-18T13:10:09;2.35;;;0.75;;
45686;SDS011;31399;51.176;7.776;2023-09-18T13:12:54;2.30;;;0.40;;
45686;SDS011;31399;51.176;7.776;2023-09-18T13:15:28;2.17;;;0.73;;
45686;SDS011;31399;51.176;7.776;2023-09-18T13:18:00;4.65;;;0.60;;
45686;SDS011;31399;51.176;7.776;2023-09-18T13:20:35;3.22;;;0.70;;
45686;SDS011;31399;51.176;7.776;2023-09-18T13:23:01;1.35;;;0.55;;
45686;SDS011;31399;51.176;7.776;2023-09-18T13:25:32;1.92;;;0.60;;
45686;SDS011;31399;51.176;7.776;2023-09-18T13:28:01;3.92;;;0.50;;
45686;SDS011;31399;51.176;7.776;2023-09-18T13:30:30;1.70;;;0.50;;
45686;SDS011;31399;51.176;7.776;2023-09-18T13:33:01;6.25;;;0.75;;
45686;SDS011;31399;51.176;7.776;2023-09-18T13:35:33;1.40;;;0.85;;
45686;SDS011;31399;51.176;7.776;2023-09-18T13:38:04;2.00;;;0.50;;
45686;SDS011;31399;51.176;7.776;2023-09-18T13:40:32;2.08;;;0.70;;
45686;SDS011;31399;51.176;7.776;2023-09-18T13:43:05;2.28;;;0.45;;
45686;SDS011;31399;51.176;7.776;2023-09-18T13:45:32;1.60;;;0.40;;
45686;SDS011;31399;51.176;7.776;2023-09-18T13:47:59;1.50;;;0.80;;
45686;SDS011;31399;51.176;7.776;2023-09-18T13:50:26;2.55;;;0.70;;
45686;SDS011;31399;51.176;7.776;2023-09-18T13:52:53;3.50;;;0.65;;
45686;SDS011;31399;51.176;7.776;2023-09-18T13:55:20;2.78;;;0.70;;
45686;SDS011;31399;51.176;7.776;2023-09-18T13:57:47;1.58;;;0.60;;
45686;SDS011;31399;51.176;7.776;2023-09-18T14:00:14;4.53;;;0.80;;
45686;SDS011;31399;51.176;7.776;2023-09-18T14:02:41;2.88;;;0.73;;
45686;SDS011;31399;51.176;7.776;2023-09-18T14:05:08;1.15;;;0.50;;
45686;SDS011;31399;51.176;7.776;2023-09-18T14:07:36;3.63;;;0.60;;
45686;SDS011;31399;51.176;7.776;2023-09-18T14:10:09;6.97;;;0.68;;
45686;SDS011;31399;51.176;7.776;2023-09-18T14:12:37;1.05;;;0.68;;
45686;SDS011;31399;51.176;7.776;2023-09-18T14:15:05;0.85;;;0.60;;
45686;SDS011;31399;51.176;7.776;2023-09-18T14:17:32;1.77;;;0.80;;
45686;SDS011;31399;51.176;7.776;2023-09-18T14:20:00;2.47;;;0.70;;
45686;SDS011;31399;51.176;7.776;2023-09-18T14:22:27;2.25;;;0.52;;
45686;SDS011;31399;51.176;7.776;2023-09-18T14:24:54;1.73;;;0.70;;
45686;SDS011;31399;51.176;7.776;2023-09-18T14:27:21;1.92;;;0.60;;
45686;SDS011;31399;51.176;7.776;2023-09-18T14:29:47;1.80;;;0.73;;
45686;SDS011;31399;51.176;7.776;2023-09-18T14:32:14;2.45;;;0.70;;
45686;SDS011;31399;51.176;7.776;2023-09-18T14:34:41;1.20;;;0.60;;
45686;SDS011;31399;51.176;7.776;2023-09-18T14:37:08;1.98;;;0.70;;
45686;SDS011;31399;51.176;7.776;2023-09-18T14:39:35;2.30;;;0.57;;
45686;SDS011;31399;51.176;7.776;2023-09-18T14:42:01;4.03;;;0.85;;
45686;SDS011;31399;51.176;7.776;2023-09-18T14:44:29;2.72;;;0.68;;
45686;SDS011;31399;51.176;7.776;2023-09-18T14:46:58;0.98;;;0.63;;
45686;SDS011;31399;51.176;7.776;2023-09-18T14:49:26;2.05;;;0.50;;
45686;SDS011;31399;51.176;7.776;2023-09-18T14:51:54;1.73;;;0.70;;
45686;SDS011;31399;51.176;7.776;2023-09-18T14:54:20;2.10;;;0.68;;
45686;SDS011;31399;51.176;7.776;2023-09-18T14:56:47;2.90;;;0.70;;
45686;SDS011;31399;51.176;7.776;2023-09-18T14:59:14;1.27;;;0.80;;
45686;SDS011;31399;51.176;7.776;2023-09-18T15:01:49;1.77;;;0.43;;
45686;SDS011;31399;51.176;7.776;2023-09-18T15:04:16;1.75;;;0.63;;
45686;SDS011;31399;51.176;7.776;2023-09-18T15:06:43;1.83;;;0.60;;
45686;SDS011;31399;51.176;7.776;2023-09-18T15:09:09;2.85;;;0.80;;